sensor_id;sensor_type;location;lat;lon;timestamp;temperature;humidity
76857;DHT22;69705;44.686;37.628;2023-07-13T00:01:48;23.91;84.65
76857;DHT22;69705;44.686;37.628;2023-07-13T00:04:18;23.94;84.71
76857;DHT22;69705;44.686;37.628;2023-07-13T00:06:46;23.94;84.73
76857;DHT22;69705;44.686;37.628;2023-07-13T00:09:17;23.92;84.86
76857;DHT22;69705;44.686;37.628;2023-07-13T00:11:45;23.92;85.09
76857;DHT22;69705;44.686;37.628;2023-07-13T00:14:14;23.95;85.32
76857;DHT22;69705;44.686;37.628;2023-07-13T00:16:42;23.90;85.20
76857;DHT22;69705;44.686;37.628;2023-07-13T00:19:31;23.91;84.93
76857;DHT22;69705;44.686;37.628;2023-07-13T00:21:58;23.90;84.70
76857;DHT22;69705;44.686;37.628;2023-07-13T00:24:25;23.90;84.62
76857;DHT22;69705;44.686;37.628;2023-07-13T00:26:53;23.90;84.32
76857;DHT22;69705;44.686;37.628;2023-07-13T00:29:21;23.87;86.05
76857;DHT22;69705;44.686;37.628;2023-07-13T00:31:48;23.81;85.66
76857;DHT22;69705;44.686;37.628;2023-07-13T00:34:14;23.80;85.07
76857;DHT22;69705;44.686;37.628;2023-07-13T00:36:41;23.72;86.42
76857;DHT22;69705;44.686;37.628;2023-07-13T00:39:08;23.60;86.91
76857;DHT22;69705;44.686;37.628;2023-07-13T00:41:35;23.50;87.64
76857;DHT22;69705;44.686;37.628;2023-07-13T00:44:04;23.45;87.20
76857;DHT22;69705;44.686;37.628;2023-07-13T00:46:33;23.43;87.81
76857;DHT22;69705;44.686;37.628;2023-07-13T00:49:05;23.39;88.04
76857;DHT22;69705;44.686;37.628;2023-07-13T00:54:15;23.28;88.42
76857;DHT22;69705;44.686;37.628;2023-07-13T00:56:44;23.17;88.39
76857;DHT22;69705;44.686;37.628;2023-07-13T00:59:13;23.08;88.50
76857;DHT22;69705;44.686;37.628;2023-07-13T01:01:41;23.01;87.96
76857;DHT22;69705;44.686;37.628;2023-07-13T01:04:08;22.97;89.01
76857;DHT22;69705;44.686;37.628;2023-07-13T01:06:39;23.00;88.70
76857;DHT22;69705;44.686;37.628;2023-07-13T01:09:07;22.98;88.73
76857;DHT22;69705;44.686;37.628;2023-07-13T01:11:34;22.93;88.69
76857;DHT22;69705;44.686;37.628;2023-07-13T01:14:03;22.90;88.45
76857;DHT22;69705;44.686;37.628;2023-07-13T01:16:34;22.84;88.80
76857;DHT22;69705;44.686;37.628;2023-07-13T01:19:11;22.77;89.55
76857;DHT22;69705;44.686;37.628;2023-07-13T01:21:40;22.78;89.35
76857;DHT22;69705;44.686;37.628;2023-07-13T01:24:09;22.77;89.28
76857;DHT22;69705;44.686;37.628;2023-07-13T01:26:36;22.77;89.05
76857;DHT22;69705;44.686;37.628;2023-07-13T01:29:03;22.70;88.92
76857;DHT22;69705;44.686;37.628;2023-07-13T01:31:30;22.65;89.05
76857;DHT22;69705;44.686;37.628;2023-07-13T01:33:58;22.58;89.28
76857;DHT22;69705;44.686;37.628;2023-07-13T01:36:25;22.54;89.28
76857;DHT22;69705;44.686;37.628;2023-07-13T01:38:52;22.50;89.14
76857;DHT22;69705;44.686;37.628;2023-07-13T01:41:19;22.43;89.24
76857;DHT22;69705;44.686;37.628;2023-07-13T01:43:46;22.39;89.25
76857;DHT22;69705;44.686;37.628;2023-07-13T01:46:13;22.33;89.30
76857;DHT22;69705;44.686;37.628;2023-07-13T01:48:40;22.26;89.50
76857;DHT22;69705;44.686;37.628;2023-07-13T01:51:07;22.10;89.79
76857;DHT22;69705;44.686;37.628;2023-07-13T01:53:34;21.95;90.64
76857;DHT22;69705;44.686;37.628;2023-07-13T01:56:02;21.90;90.86
76857;DHT22;69705;44.686;37.628;2023-07-13T01:58:29;21.91;90.56
76857;DHT22;69705;44.686;37.628;2023-07-13T02:00:56;21.89;90.41
76857;DHT22;69705;44.686;37.628;2023-07-13T02:03:23;21.89;90.69
76857;DHT22;69705;44.686;37.628;2023-07-13T02:05:50;21.87;90.37
76857;DHT22;69705;44.686;37.628;2023-07-13T02:08:17;21.85;90.27
76857;DHT22;69705;44.686;37.628;2023-07-13T02:10:44;21.84;90.17
76857;DHT22;69705;44.686;37.628;2023-07-13T02:13:12;21.83;90.36
76857;DHT22;69705;44.686;37.628;2023-07-13T02:15:39;21.82;90.60
76857;DHT22;69705;44.686;37.628;2023-07-13T02:18:07;21.81;90.31
76857;DHT22;69705;44.686;37.628;2023-07-13T02:20:34;21.81;90.64
76857;DHT22;69705;44.686;37.628;2023-07-13T02:23:01;21.78;90.14
76857;DHT22;69705;44.686;37.628;2023-07-13T02:25:28;21.73;90.41
76857;DHT22;69705;44.686;37.628;2023-07-13T02:27:55;21.70;90.47
76857;DHT22;69705;44.686;37.628;2023-07-13T02:30:22;21.72;90.73
76857;DHT22;69705;44.686;37.628;2023-07-13T02:32:54;21.69;91.19
76857;DHT22;69705;44.686;37.628;2023-07-13T02:35:21;21.67;91.08
76857;DHT22;69705;44.686;37.628;2023-07-13T02:37:48;21.65;91.22
76857;DHT22;69705;44.686;37.628;2023-07-13T02:40:15;21.63;90.95
76857;DHT22;69705;44.686;37.628;2023-07-13T02:42:42;21.65;90.64
76857;DHT22;69705;44.686;37.628;2023-07-13T02:45:09;21.63;90.69
76857;DHT22;69705;44.686;37.628;2023-07-13T02:47:36;21.61;90.89
76857;DHT22;69705;44.686;37.628;2023-07-13T02:50:03;21.63;90.95
76857;DHT22;69705;44.686;37.628;2023-07-13T02:52:31;21.64;90.62
76857;DHT22;69705;44.686;37.628;2023-07-13T02:54:58;21.66;90.83
76857;DHT22;69705;44.686;37.628;2023-07-13T02:57:25;21.65;91.20
76857;DHT22;69705;44.686;37.628;2023-07-13T02:59:53;21.69;91.02
76857;DHT22;69705;44.686;37.628;2023-07-13T03:02:21;21.68;91.10
76857;DHT22;69705;44.686;37.628;2023-07-13T03:04:48;21.70;91.20
76857;DHT22;69705;44.686;37.628;2023-07-13T03:07:15;21.73;91.16
76857;DHT22;69705;44.686;37.628;2023-07-13T03:09:43;21.70;91.40
76857;DHT22;69705;44.686;37.628;2023-07-13T03:12:10;21.72;91.00
76857;DHT22;69705;44.686;37.628;2023-07-13T03:14:39;21.73;91.14
76857;DHT22;69705;44.686;37.628;2023-07-13T03:17:07;21.69;91.27
76857;DHT22;69705;44.686;37.628;2023-07-13T03:19:38;21.64;91.51
76857;DHT22;69705;44.686;37.628;2023-07-13T03:22:06;21.60;91.66
76857;DHT22;69705;44.686;37.628;2023-07-13T03:24:34;21.58;91.47
76857;DHT22;69705;44.686;37.628;2023-07-13T03:27:04;21.60;91.31
76857;DHT22;69705;44.686;37.628;2023-07-13T03:29:32;21.59;91.52
76857;DHT22;69705;44.686;37.628;2023-07-13T03:31:59;21.62;91.50
76857;DHT22;69705;44.686;37.628;2023-07-13T03:34:26;21.65;91.40
76857;DHT22;69705;44.686;37.628;2023-07-13T03:36:56;21.70;91.36
76857;DHT22;69705;44.686;37.628;2023-07-13T03:39:24;21.75;91.69
76857;DHT22;69705;44.686;37.628;2023-07-13T03:41:55;21.81;91.43
76857;DHT22;69705;44.686;37.628;2023-07-13T03:44:22;21.83;91.27
76857;DHT22;69705;44.686;37.628;2023-07-13T03:46:53;21.91;90.92
76857;DHT22;69705;44.686;37.628;2023-07-13T03:49:20;21.97;90.59
76857;DHT22;69705;44.686;37.628;2023-07-13T03:51:48;22.03;90.91
76857;DHT22;69705;44.686;37.628;2023-07-13T03:54:17;22.09;90.92
76857;DHT22;69705;44.686;37.628;2023-07-13T03:56:44;22.11;91.24
76857;DHT22;69705;44.686;37.628;2023-07-13T03:59:12;22.14;91.27
76857;DHT22;69705;44.686;37.628;2023-07-13T04:01:39;22.21;91.21
76857;DHT22;69705;44.686;37.628;2023-07-13T04:04:06;22.25;91.02
76857;DHT22;69705;44.686;37.628;2023-07-13T04:06:34;22.43;90.12
76857;DHT22;69705;44.686;37.628;2023-07-13T04:09:02;22.54;89.85
76857;DHT22;69705;44.686;37.628;2023-07-13T04:11:32;22.67;89.64
76857;DHT22;69705;44.686;37.628;2023-07-13T04:14:00;22.82;88.73
76857;DHT22;69705;44.686;37.628;2023-07-13T04:16:27;22.98;88.28
76857;DHT22;69705;44.686;37.628;2023-07-13T04:18:55;23.10;87.78
76857;DHT22;69705;44.686;37.628;2023-07-13T04:21:30;23.17;87.92
76857;DHT22;69705;44.686;37.628;2023-07-13T04:23:58;23.31;87.74
76857;DHT22;69705;44.686;37.628;2023-07-13T04:26:25;23.41;86.54
76857;DHT22;69705;44.686;37.628;2023-07-13T04:28:52;23.53;86.22
76857;DHT22;69705;44.686;37.628;2023-07-13T04:31:19;23.65;85.95
76857;DHT22;69705;44.686;37.628;2023-07-13T04:33:47;23.76;85.74
76857;DHT22;69705;44.686;37.628;2023-07-13T04:36:15;23.87;85.20
76857;DHT22;69705;44.686;37.628;2023-07-13T04:38:42;23.97;83.78
76857;DHT22;69705;44.686;37.628;2023-07-13T04:41:09;24.09;83.41
76857;DHT22;69705;44.686;37.628;2023-07-13T04:43:36;24.13;83.45
76857;DHT22;69705;44.686;37.628;2023-07-13T04:46:07;24.16;83.46
76857;DHT22;69705;44.686;37.628;2023-07-13T04:48:35;24.25;83.42
76857;DHT22;69705;44.686;37.628;2023-07-13T04:51:02;24.33;83.03
76857;DHT22;69705;44.686;37.628;2023-07-13T04:53:30;24.42;82.18
76857;DHT22;69705;44.686;37.628;2023-07-13T04:55:57;24.56;82.12
76857;DHT22;69705;44.686;37.628;2023-07-13T04:58:25;24.63;80.85
76857;DHT22;69705;44.686;37.628;2023-07-13T05:00:52;24.64;80.36
76857;DHT22;69705;44.686;37.628;2023-07-13T05:03:19;24.57;80.56
76857;DHT22;69705;44.686;37.628;2023-07-13T05:06:15;24.60;80.57
76857;DHT22;69705;44.686;37.628;2023-07-13T05:08:42;24.64;80.09
76857;DHT22;69705;44.686;37.628;2023-07-13T05:11:09;24.70;81.21
76857;DHT22;69705;44.686;37.628;2023-07-13T05:13:35;24.74;81.19
76857;DHT22;69705;44.686;37.628;2023-07-13T05:16:05;24.79;79.82
76857;DHT22;69705;44.686;37.628;2023-07-13T05:18:35;24.85;80.43
76857;DHT22;69705;44.686;37.628;2023-07-13T05:21:05;24.87;80.24
76857;DHT22;69705;44.686;37.628;2023-07-13T05:23:34;24.87;80.07
76857;DHT22;69705;44.686;37.628;2023-07-13T05:26:02;24.91;79.91
76857;DHT22;69705;44.686;37.628;2023-07-13T05:28:31;24.93;78.89
76857;DHT22;69705;44.686;37.628;2023-07-13T05:30:58;24.97;77.45
76857;DHT22;69705;44.686;37.628;2023-07-13T05:33:26;25.01;77.15
76857;DHT22;69705;44.686;37.628;2023-07-13T05:35:53;25.06;76.89
76857;DHT22;69705;44.686;37.628;2023-07-13T05:38:20;25.10;78.15
76857;DHT22;69705;44.686;37.628;2023-07-13T05:40:47;25.21;78.38
76857;DHT22;69705;44.686;37.628;2023-07-13T05:43:14;25.29;77.21
76857;DHT22;69705;44.686;37.628;2023-07-13T05:45:41;25.34;76.28
76857;DHT22;69705;44.686;37.628;2023-07-13T05:48:08;25.37;77.24
76857;DHT22;69705;44.686;37.628;2023-07-13T05:50:34;25.34;76.79
76857;DHT22;69705;44.686;37.628;2023-07-13T05:53:01;25.39;77.07
76857;DHT22;69705;44.686;37.628;2023-07-13T05:55:28;25.37;76.02
76857;DHT22;69705;44.686;37.628;2023-07-13T05:57:55;25.39;78.34
76857;DHT22;69705;44.686;37.628;2023-07-13T06:00:25;25.48;78.59
76857;DHT22;69705;44.686;37.628;2023-07-13T06:02:51;25.59;75.45
76857;DHT22;69705;44.686;37.628;2023-07-13T06:05:19;25.57;77.19
76857;DHT22;69705;44.686;37.628;2023-07-13T06:07:46;25.54;76.95
76857;DHT22;69705;44.686;37.628;2023-07-13T06:10:18;25.56;74.90
76857;DHT22;69705;44.686;37.628;2023-07-13T06:12:44;25.48;74.44
76857;DHT22;69705;44.686;37.628;2023-07-13T06:15:12;25.49;76.24
76857;DHT22;69705;44.686;37.628;2023-07-13T06:17:38;25.54;77.70
76857;DHT22;69705;44.686;37.628;2023-07-13T06:20:06;25.60;76.97
76857;DHT22;69705;44.686;37.628;2023-07-13T06:22:33;25.62;75.70
76857;DHT22;69705;44.686;37.628;2023-07-13T06:25:00;25.57;75.89
76857;DHT22;69705;44.686;37.628;2023-07-13T06:27:27;25.60;75.87
76857;DHT22;69705;44.686;37.628;2023-07-13T06:29:54;25.63;76.74
76857;DHT22;69705;44.686;37.628;2023-07-13T06:32:21;25.63;75.45
76857;DHT22;69705;44.686;37.628;2023-07-13T06:34:48;25.50;75.53
76857;DHT22;69705;44.686;37.628;2023-07-13T06:37:14;25.53;75.60
76857;DHT22;69705;44.686;37.628;2023-07-13T06:39:41;25.56;76.97
76857;DHT22;69705;44.686;37.628;2023-07-13T06:42:08;25.61;75.87
76857;DHT22;69705;44.686;37.628;2023-07-13T06:44:35;25.60;77.18
76857;DHT22;69705;44.686;37.628;2023-07-13T06:47:02;25.64;77.02
76857;DHT22;69705;44.686;37.628;2023-07-13T06:49:29;25.68;76.86
76857;DHT22;69705;44.686;37.628;2023-07-13T06:51:56;25.72;77.15
76857;DHT22;69705;44.686;37.628;2023-07-13T06:54:23;25.72;76.58
76857;DHT22;69705;44.686;37.628;2023-07-13T06:56:49;25.77;77.33
76857;DHT22;69705;44.686;37.628;2023-07-13T06:59:16;25.79;77.09
76857;DHT22;69705;44.686;37.628;2023-07-13T07:01:43;25.90;75.50
76857;DHT22;69705;44.686;37.628;2023-07-13T07:04:10;25.95;74.47
76857;DHT22;69705;44.686;37.628;2023-07-13T07:06:37;25.99;75.43
76857;DHT22;69705;44.686;37.628;2023-07-13T07:09:04;25.97;75.16
76857;DHT22;69705;44.686;37.628;2023-07-13T07:11:31;26.02;75.36
76857;DHT22;69705;44.686;37.628;2023-07-13T07:13:57;26.15;75.14
76857;DHT22;69705;44.686;37.628;2023-07-13T07:16:26;26.25;74.59
76857;DHT22;69705;44.686;37.628;2023-07-13T07:18:53;26.30;72.75
76857;DHT22;69705;44.686;37.628;2023-07-13T07:21:20;26.31;73.48
76857;DHT22;69705;44.686;37.628;2023-07-13T07:23:49;26.36;74.38
76857;DHT22;69705;44.686;37.628;2023-07-13T07:26:15;26.36;72.44
76857;DHT22;69705;44.686;37.628;2023-07-13T07:28:42;26.40;72.79
76857;DHT22;69705;44.686;37.628;2023-07-13T07:31:09;26.51;74.06
76857;DHT22;69705;44.686;37.628;2023-07-13T07:33:37;26.66;74.51
76857;DHT22;69705;44.686;37.628;2023-07-13T07:36:04;26.55;72.28
76857;DHT22;69705;44.686;37.628;2023-07-13T07:38:31;26.54;72.08
76857;DHT22;69705;44.686;37.628;2023-07-13T07:40:57;26.43;72.43
76857;DHT22;69705;44.686;37.628;2023-07-13T07:43:24;26.39;73.38
76857;DHT22;69705;44.686;37.628;2023-07-13T07:45:51;26.35;73.54
76857;DHT22;69705;44.686;37.628;2023-07-13T07:48:18;26.40;73.28
76857;DHT22;69705;44.686;37.628;2023-07-13T07:50:45;26.34;72.49
76857;DHT22;69705;44.686;37.628;2023-07-13T07:53:12;26.32;73.40
76857;DHT22;69705;44.686;37.628;2023-07-13T07:55:39;26.42;73.06
76857;DHT22;69705;44.686;37.628;2023-07-13T07:58:06;26.50;72.16
76857;DHT22;69705;44.686;37.628;2023-07-13T08:00:33;26.43;73.44
76857;DHT22;69705;44.686;37.628;2023-07-13T08:03:02;26.49;73.49
76857;DHT22;69705;44.686;37.628;2023-07-13T08:05:29;26.41;72.90
76857;DHT22;69705;44.686;37.628;2023-07-13T08:07:56;26.52;72.45
76857;DHT22;69705;44.686;37.628;2023-07-13T08:10:23;26.56;73.35
76857;DHT22;69705;44.686;37.628;2023-07-13T08:12:49;26.81;73.54
76857;DHT22;69705;44.686;37.628;2023-07-13T08:15:17;26.83;73.22
76857;DHT22;69705;44.686;37.628;2023-07-13T08:17:48;26.92;71.15
76857;DHT22;69705;44.686;37.628;2023-07-13T08:20:16;27.05;71.48
76857;DHT22;69705;44.686;37.628;2023-07-13T08:22:43;27.00;71.76
76857;DHT22;69705;44.686;37.628;2023-07-13T08:25:09;27.14;71.32
76857;DHT22;69705;44.686;37.628;2023-07-13T08:27:36;27.30;72.35
76857;DHT22;69705;44.686;37.628;2023-07-13T08:30:03;27.38;70.64
76857;DHT22;69705;44.686;37.628;2023-07-13T08:32:32;27.25;67.82
76857;DHT22;69705;44.686;37.628;2023-07-13T08:34:59;27.17;69.45
76857;DHT22;69705;44.686;37.628;2023-07-13T08:37:26;27.39;70.00
76857;DHT22;69705;44.686;37.628;2023-07-13T08:39:52;27.49;70.04
76857;DHT22;69705;44.686;37.628;2023-07-13T08:48:20;27.69;67.84
76857;DHT22;69705;44.686;37.628;2023-07-13T08:51:23;27.85;69.27
76857;DHT22;69705;44.686;37.628;2023-07-13T08:53:55;27.83;67.64
76857;DHT22;69705;44.686;37.628;2023-07-13T08:56:25;27.96;69.06
76857;DHT22;69705;44.686;37.628;2023-07-13T08:58:57;28.10;67.32
76857;DHT22;69705;44.686;37.628;2023-07-13T09:04:41;27.97;68.86
76857;DHT22;69705;44.686;37.628;2023-07-13T09:15:39;28.28;69.54
76857;DHT22;69705;44.686;37.628;2023-07-13T09:18:16;28.19;68.86
76857;DHT22;69705;44.686;37.628;2023-07-13T09:20:49;28.29;67.67
76857;DHT22;69705;44.686;37.628;2023-07-13T09:23:20;28.17;68.36
76857;DHT22;69705;44.686;37.628;2023-07-13T09:25:49;28.24;68.46
76857;DHT22;69705;44.686;37.628;2023-07-13T09:28:27;28.31;68.51
76857;DHT22;69705;44.686;37.628;2023-07-13T09:31:24;28.44;69.39
76857;DHT22;69705;44.686;37.628;2023-07-13T09:33:52;28.65;68.49
76857;DHT22;69705;44.686;37.628;2023-07-13T09:41:47;29.00;67.64
76857;DHT22;69705;44.686;37.628;2023-07-13T09:44:18;29.18;66.20
76857;DHT22;69705;44.686;37.628;2023-07-13T09:46:55;29.15;66.69
76857;DHT22;69705;44.686;37.628;2023-07-13T09:49:29;29.32;66.73
76857;DHT22;69705;44.686;37.628;2023-07-13T09:52:02;29.30;65.37
76857;DHT22;69705;44.686;37.628;2023-07-13T09:54:33;29.38;65.58
76857;DHT22;69705;44.686;37.628;2023-07-13T09:57:01;29.28;65.11
76857;DHT22;69705;44.686;37.628;2023-07-13T09:59:36;29.52;66.39
76857;DHT22;69705;44.686;37.628;2023-07-13T10:02:39;29.56;65.98
76857;DHT22;69705;44.686;37.628;2023-07-13T10:05:11;29.48;65.51
76857;DHT22;69705;44.686;37.628;2023-07-13T10:07:43;29.44;66.54
76857;DHT22;69705;44.686;37.628;2023-07-13T10:10:16;29.65;64.10
76857;DHT22;69705;44.686;37.628;2023-07-13T10:12:44;29.66;64.26
76857;DHT22;69705;44.686;37.628;2023-07-13T10:15:22;29.72;65.01
76857;DHT22;69705;44.686;37.628;2023-07-13T10:17:54;29.61;64.11
76857;DHT22;69705;44.686;37.628;2023-07-13T10:20:21;29.62;64.24
76857;DHT22;69705;44.686;37.628;2023-07-13T10:25:26;29.45;64.73
76857;DHT22;69705;44.686;37.628;2023-07-13T10:28:11;29.52;64.67
76857;DHT22;69705;44.686;37.628;2023-07-13T10:30:42;29.56;65.02
76857;DHT22;69705;44.686;37.628;2023-07-13T10:33:12;29.65;64.05
76857;DHT22;69705;44.686;37.628;2023-07-13T10:35:41;29.52;64.41
76857;DHT22;69705;44.686;37.628;2023-07-13T10:38:15;29.62;65.11
76857;DHT22;69705;44.686;37.628;2023-07-13T10:41:20;29.54;65.63
76857;DHT22;69705;44.686;37.628;2023-07-13T10:43:52;29.45;64.48
76857;DHT22;69705;44.686;37.628;2023-07-13T10:46:24;29.39;65.67
76857;DHT22;69705;44.686;37.628;2023-07-13T10:49:02;29.39;65.77
76857;DHT22;69705;44.686;37.628;2023-07-13T10:51:31;29.56;65.78
76857;DHT22;69705;44.686;37.628;2023-07-13T10:54:14;29.56;64.55
76857;DHT22;69705;44.686;37.628;2023-07-13T10:56:43;29.53;64.64
76857;DHT22;69705;44.686;37.628;2023-07-13T10:59:15;29.50;64.57
76857;DHT22;69705;44.686;37.628;2023-07-13T11:04:13;29.62;64.88
76857;DHT22;69705;44.686;37.628;2023-07-13T11:06:42;29.48;64.61
76857;DHT22;69705;44.686;37.628;2023-07-13T11:09:40;29.57;64.18
76857;DHT22;69705;44.686;37.628;2023-07-13T11:15:12;29.54;65.96
76857;DHT22;69705;44.686;37.628;2023-07-13T11:17:49;29.60;65.27
76857;DHT22;69705;44.686;37.628;2023-07-13T11:25:39;29.91;65.76
76857;DHT22;69705;44.686;37.628;2023-07-13T11:28:17;30.13;63.38
76857;DHT22;69705;44.686;37.628;2023-07-13T11:33:27;30.17;62.99
76857;DHT22;69705;44.686;37.628;2023-07-13T11:36:03;30.31;62.40
76857;DHT22;69705;44.686;37.628;2023-07-13T11:38:42;30.41;60.95
76857;DHT22;69705;44.686;37.628;2023-07-13T11:41:18;30.22;60.51
76857;DHT22;69705;44.686;37.628;2023-07-13T11:43:49;30.02;62.12
76857;DHT22;69705;44.686;37.628;2023-07-13T11:46:26;30.06;61.28
76857;DHT22;69705;44.686;37.628;2023-07-13T11:48:54;30.06;60.97
76857;DHT22;69705;44.686;37.628;2023-07-13T11:51:28;30.08;61.21
76857;DHT22;69705;44.686;37.628;2023-07-13T11:54:10;29.92;59.59
76857;DHT22;69705;44.686;37.628;2023-07-13T11:56:40;30.04;59.18
76857;DHT22;69705;44.686;37.628;2023-07-13T11:59:10;30.08;57.64
76857;DHT22;69705;44.686;37.628;2023-07-13T12:01:52;30.23;59.21
76857;DHT22;69705;44.686;37.628;2023-07-13T12:04:31;30.26;58.77
76857;DHT22;69705;44.686;37.628;2023-07-13T12:07:15;30.11;58.15
76857;DHT22;69705;44.686;37.628;2023-07-13T12:09:43;29.94;58.54
76857;DHT22;69705;44.686;37.628;2023-07-13T12:12:16;29.86;59.16
76857;DHT22;69705;44.686;37.628;2023-07-13T12:14:44;30.02;58.95
76857;DHT22;69705;44.686;37.628;2023-07-13T12:17:20;30.20;58.01
76857;DHT22;69705;44.686;37.628;2023-07-13T12:19:52;30.09;56.66
76857;DHT22;69705;44.686;37.628;2023-07-13T12:22:20;29.80;58.20
76857;DHT22;69705;44.686;37.628;2023-07-13T12:24:48;29.87;58.22
76857;DHT22;69705;44.686;37.628;2023-07-13T12:27:24;29.93;58.42
76857;DHT22;69705;44.686;37.628;2023-07-13T12:29:58;29.97;59.09
76857;DHT22;69705;44.686;37.628;2023-07-13T12:32:27;29.90;59.40
76857;DHT22;69705;44.686;37.628;2023-07-13T12:34:56;29.97;59.93
76857;DHT22;69705;44.686;37.628;2023-07-13T12:37:24;29.96;57.39
76857;DHT22;69705;44.686;37.628;2023-07-13T12:39:51;30.07;57.80
76857;DHT22;69705;44.686;37.628;2023-07-13T12:42:20;30.02;59.23
76857;DHT22;69705;44.686;37.628;2023-07-13T12:44:47;29.95;57.89
76857;DHT22;69705;44.686;37.628;2023-07-13T12:47:15;29.94;58.00
76857;DHT22;69705;44.686;37.628;2023-07-13T12:49:47;30.07;58.18
76857;DHT22;69705;44.686;37.628;2023-07-13T12:52:19;30.08;57.96
76857;DHT22;69705;44.686;37.628;2023-07-13T12:54:58;30.04;59.05
76857;DHT22;69705;44.686;37.628;2023-07-13T12:57:26;30.15;59.67
76857;DHT22;69705;44.686;37.628;2023-07-13T12:59:54;30.31;58.43
76857;DHT22;69705;44.686;37.628;2023-07-13T13:02:33;30.24;58.25
76857;DHT22;69705;44.686;37.628;2023-07-13T13:05:01;30.16;59.06
76857;DHT22;69705;44.686;37.628;2023-07-13T13:07:30;30.07;59.74
76857;DHT22;69705;44.686;37.628;2023-07-13T13:09:57;30.04;59.09
76857;DHT22;69705;44.686;37.628;2023-07-13T13:12:25;30.00;59.51
76857;DHT22;69705;44.686;37.628;2023-07-13T13:14:52;30.01;59.54
76857;DHT22;69705;44.686;37.628;2023-07-13T13:17:22;29.58;60.93
76857;DHT22;69705;44.686;37.628;2023-07-13T13:19:51;29.60;59.71
76857;DHT22;69705;44.686;37.628;2023-07-13T13:22:21;29.52;60.12
76857;DHT22;69705;44.686;37.628;2023-07-13T13:24:48;29.30;61.18
76857;DHT22;69705;44.686;37.628;2023-07-13T13:27:17;29.20;61.44
76857;DHT22;69705;44.686;37.628;2023-07-13T13:29:44;29.20;62.04
76857;DHT22;69705;44.686;37.628;2023-07-13T13:32:13;29.08;61.09
76857;DHT22;69705;44.686;37.628;2023-07-13T13:34:41;29.07;61.84
76857;DHT22;69705;44.686;37.628;2023-07-13T13:37:27;28.85;61.96
76857;DHT22;69705;44.686;37.628;2023-07-13T13:39:54;28.91;60.82
76857;DHT22;69705;44.686;37.628;2023-07-13T13:42:21;28.85;61.99
76857;DHT22;69705;44.686;37.628;2023-07-13T13:44:51;28.85;61.55
76857;DHT22;69705;44.686;37.628;2023-07-13T13:47:30;28.70;61.84
76857;DHT22;69705;44.686;37.628;2023-07-13T13:49:58;28.68;61.27
76857;DHT22;69705;44.686;37.628;2023-07-13T13:52:25;28.74;62.32
76857;DHT22;69705;44.686;37.628;2023-07-13T13:54:52;28.85;60.22
76857;DHT22;69705;44.686;37.628;2023-07-13T13:57:23;28.82;60.10
76857;DHT22;69705;44.686;37.628;2023-07-13T13:59:51;28.75;61.10
76857;DHT22;69705;44.686;37.628;2023-07-13T14:02:25;28.75;61.39
76857;DHT22;69705;44.686;37.628;2023-07-13T14:05:02;28.57;61.10
76857;DHT22;69705;44.686;37.628;2023-07-13T14:07:29;28.64;60.09
76857;DHT22;69705;44.686;37.628;2023-07-13T14:09:58;28.71;60.34
76857;DHT22;69705;44.686;37.628;2023-07-13T14:12:29;28.65;61.63
76857;DHT22;69705;44.686;37.628;2023-07-13T14:14:56;28.76;61.34
76857;DHT22;69705;44.686;37.628;2023-07-13T14:17:26;28.68;59.83
76857;DHT22;69705;44.686;37.628;2023-07-13T14:19:54;28.78;60.68
76857;DHT22;69705;44.686;37.628;2023-07-13T14:22:25;28.78;60.22
76857;DHT22;69705;44.686;37.628;2023-07-13T14:24:53;28.77;61.02
76857;DHT22;69705;44.686;37.628;2023-07-13T14:27:21;28.72;59.97
76857;DHT22;69705;44.686;37.628;2023-07-13T14:29:49;28.57;60.83
76857;DHT22;69705;44.686;37.628;2023-07-13T14:32:16;28.58;60.08
76857;DHT22;69705;44.686;37.628;2023-07-13T14:34:43;28.44;61.41
76857;DHT22;69705;44.686;37.628;2023-07-13T14:37:13;28.46;60.75
76857;DHT22;69705;44.686;37.628;2023-07-13T14:39:43;28.30;61.31
76857;DHT22;69705;44.686;37.628;2023-07-13T14:42:10;28.19;61.41
76857;DHT22;69705;44.686;37.628;2023-07-13T14:44:39;28.02;62.82
76857;DHT22;69705;44.686;37.628;2023-07-13T14:47:08;27.91;62.96
76857;DHT22;69705;44.686;37.628;2023-07-13T14:49:40;27.87;62.81
76857;DHT22;69705;44.686;37.628;2023-07-13T14:52:17;27.78;63.31
76857;DHT22;69705;44.686;37.628;2023-07-13T14:54:44;27.60;63.34
76857;DHT22;69705;44.686;37.628;2023-07-13T14:57:15;27.55;64.62
76857;DHT22;69705;44.686;37.628;2023-07-13T14:59:42;27.47;65.42
76857;DHT22;69705;44.686;37.628;2023-07-13T15:05:14;27.27;66.59
76857;DHT22;69705;44.686;37.628;2023-07-13T15:07:42;27.23;65.94
76857;DHT22;69705;44.686;37.628;2023-07-13T15:10:23;27.08;66.30
76857;DHT22;69705;44.686;37.628;2023-07-13T15:12:52;26.87;66.83
76857;DHT22;69705;44.686;37.628;2023-07-13T15:15:19;26.67;67.87
76857;DHT22;69705;44.686;37.628;2023-07-13T15:17:47;26.66;68.13
76857;DHT22;69705;44.686;37.628;2023-07-13T15:20:28;26.56;68.13
76857;DHT22;69705;44.686;37.628;2023-07-13T15:22:56;26.49;68.32
76857;DHT22;69705;44.686;37.628;2023-07-13T15:25:26;26.40;69.08
76857;DHT22;69705;44.686;37.628;2023-07-13T15:27:54;26.37;68.94
76857;DHT22;69705;44.686;37.628;2023-07-13T15:30:22;26.24;68.98
76857;DHT22;69705;44.686;37.628;2023-07-13T15:32:52;26.22;69.25
76857;DHT22;69705;44.686;37.628;2023-07-13T15:35:21;26.22;69.30
76857;DHT22;69705;44.686;37.628;2023-07-13T15:37:49;26.08;69.19
76857;DHT22;69705;44.686;37.628;2023-07-13T15:40:17;26.04;69.58
76857;DHT22;69705;44.686;37.628;2023-07-13T15:42:45;25.97;69.82
76857;DHT22;69705;44.686;37.628;2023-07-13T15:45:23;25.94;69.74
76857;DHT22;69705;44.686;37.628;2023-07-13T15:47:54;25.92;70.81
76857;DHT22;69705;44.686;37.628;2023-07-13T15:50:24;25.89;70.96
76857;DHT22;69705;44.686;37.628;2023-07-13T15:52:55;25.81;70.84
76857;DHT22;69705;44.686;37.628;2023-07-13T15:55:24;25.77;71.22
76857;DHT22;69705;44.686;37.628;2023-07-13T15:57:52;25.71;71.74
76857;DHT22;69705;44.686;37.628;2023-07-13T16:00:22;25.66;71.79
76857;DHT22;69705;44.686;37.628;2023-07-13T16:02:50;25.66;72.04
76857;DHT22;69705;44.686;37.628;2023-07-13T16:05:18;25.61;72.02
76857;DHT22;69705;44.686;37.628;2023-07-13T16:07:46;25.57;73.19
76857;DHT22;69705;44.686;37.628;2023-07-13T16:10:22;25.47;72.87
76857;DHT22;69705;44.686;37.628;2023-07-13T16:12:49;25.36;74.64
76857;DHT22;69705;44.686;37.628;2023-07-13T16:15:18;25.34;73.44